sensor_id;sensor_type;location;lat;lon;timestamp;pressure;altitude;pressure_sealevel;temperature;humidity
39789;BME280;25478;42.626;23.320;2023-04-06T00:01:47;92744.75;;;-1.38;81.32
39789;BME280;25478;42.626;23.320;2023-04-06T00:04:12;92742.91;;;-1.38;81.07
39789;BME280;25478;42.626;23.320;2023-04-06T00:06:38;92748.53;;;-1.36;81.48
39789;BME280;25478;42.626;23.320;2023-04-06T00:09:03;92732.91;;;-1.39;81.65
39789;BME280;25478;42.626;23.320;2023-04-06T00:11:29;92740.78;;;-1.45;80.99
39789;BME280;25478;42.626;23.320;2023-04-06T00:13:54;92740.78;;;-1.45;81.34
39789;BME280;25478;42.626;23.320;2023-04-06T00:16:20;92734.28;;;-1.51;81.72
39789;BME280;25478;42.626;23.320;2023-04-06T00:18:46;92732.31;;;-1.54;82.22
39789;BME280;25478;42.626;23.320;2023-04-06T00:21:12;92745.97;;;-1.53;82.19
39789;BME280;25478;42.626;23.320;2023-04-06T00:23:41;92707.16;;;-1.74;81.89
39789;BME280;25478;42.626;23.320;2023-04-06T00:26:08;92723.50;;;-1.61;82.26
39789;BME280;25478;42.626;23.320;2023-04-06T00:28:33;92714.88;;;-1.65;81.70
39789;BME280;25478;42.626;23.320;2023-04-06T00:30:59;92712.59;;;-1.67;81.46
39789;BME280;25478;42.626;23.320;2023-04-06T00:33:25;92709.28;;;-1.67;81.44
39789;BME280;25478;42.626;23.320;2023-04-06T00:35:51;92717.78;;;-1.67;81.58
39789;BME280;25478;42.626;23.320;2023-04-06T00:38:16;92717.47;;;-1.65;81.28
39789;BME280;25478;42.626;23.320;2023-04-06T00:40:43;92708.50;;;-1.77;81.90
39789;BME280;25478;42.626;23.320;2023-04-06T00:43:11;92712.88;;;-1.68;82.30
39789;BME280;25478;42.626;23.320;2023-04-06T00:45:40;92706.53;;;-1.71;82.34
39789;BME280;25478;42.626;23.320;2023-04-06T00:48:07;92682.13;;;-1.91;82.46
39789;BME280;25478;42.626;23.320;2023-04-06T00:50:32;92705.00;;;-1.72;83.13
39789;BME280;25478;42.626;23.320;2023-04-06T00:52:59;92702.00;;;-1.74;83.08
39789;BME280;25478;42.626;23.320;2023-04-06T00:55:28;92681.97;;;-1.94;83.10
39789;BME280;25478;42.626;23.320;2023-04-06T00:57:55;92716.72;;;-1.75;82.87
39789;BME280;25478;42.626;23.320;2023-04-06T01:00:22;92708.22;;;-1.75;83.06
39789;BME280;25478;42.626;23.320;2023-04-06T01:02:53;92708.66;;;-1.82;83.65
39789;BME280;25478;42.626;23.320;2023-04-06T01:05:23;92709.75;;;-1.83;83.68
39789;BME280;25478;42.626;23.320;2023-04-06T01:07:54;92704.88;;;-1.84;83.48
39789;BME280;25478;42.626;23.320;2023-04-06T01:10:26;92693.50;;;-1.83;82.88
39789;BME280;25478;42.626;23.320;2023-04-06T01:12:57;92683.19;;;-1.83;81.94
39789;BME280;25478;42.626;23.320;2023-04-06T01:15:41;92684.53;;;-1.86;81.97
39789;BME280;25478;42.626;23.320;2023-04-06T01:18:10;92695.00;;;-1.82;82.11
39789;BME280;25478;42.626;23.320;2023-04-06T01:20:41;92690.16;;;-1.84;81.93
39789;BME280;25478;42.626;23.320;2023-04-06T01:23:08;92676.34;;;-1.88;82.12
39789;BME280;25478;42.626;23.320;2023-04-06T01:25:35;92694.84;;;-1.77;81.81
39789;BME280;25478;42.626;23.320;2023-04-06T01:28:06;92699.72;;;-1.76;81.76
39789;BME280;25478;42.626;23.320;2023-04-06T01:30:50;92694.84;;;-1.77;81.47
39789;BME280;25478;42.626;23.320;2023-04-06T01:33:34;92683.47;;;-1.76;81.26
39789;BME280;25478;42.626;23.320;2023-04-06T01:36:05;92683.91;;;-1.74;81.39
39789;BME280;25478;42.626;23.320;2023-04-06T01:38:31;92680.91;;;-1.76;81.50
39789;BME280;25478;42.626;23.320;2023-04-06T01:40:57;92696.81;;;-1.74;81.43
39789;BME280;25478;42.626;23.320;2023-04-06T01:43:24;92677.25;;;-1.75;81.64
39789;BME280;25478;42.626;23.320;2023-04-06T01:46:19;92668.91;;;-1.81;81.28
39789;BME280;25478;42.626;23.320;2023-04-06T01:48:44;92674.66;;;-1.75;81.85
39789;BME280;25478;42.626;23.320;2023-04-06T01:51:18;92662.53;;;-1.83;81.28
39789;BME280;25478;42.626;23.320;2023-04-06T01:53:50;92664.06;;;-1.82;81.55
39789;BME280;25478;42.626;23.320;2023-04-06T01:56:19;92671.78;;;-1.82;81.03
39789;BME280;25478;42.626;23.320;2023-04-06T01:58:54;92663.00;;;-1.90;81.91
39789;BME280;25478;42.626;23.320;2023-04-06T02:01:21;92670.59;;;-1.85;82.00
39789;BME280;25478;42.626;23.320;2023-04-06T02:03:52;92674.22;;;-1.86;81.72
39789;BME280;25478;42.626;23.320;2023-04-06T02:06:18;92661.31;;;-1.86;81.56
39789;BME280;25478;42.626;23.320;2023-04-06T02:08:44;92657.69;;;-1.85;82.02
39789;BME280;25478;42.626;23.320;2023-04-06T02:11:09;92660.41;;;-1.81;81.19
39789;BME280;25478;42.626;23.320;2023-04-06T02:13:50;92670.56;;;-1.76;80.95
39789;BME280;25478;42.626;23.320;2023-04-06T02:16:16;92666.16;;;-1.76;81.73
39789;BME280;25478;42.626;23.320;2023-04-06T02:18:44;92668.13;;;-1.73;81.70
39789;BME280;25478;42.626;23.320;2023-04-06T02:21:10;92660.06;;;-1.71;80.73
39789;BME280;25478;42.626;23.320;2023-04-06T02:23:38;92660.22;;;-1.67;81.65
39789;BME280;25478;42.626;23.320;2023-04-06T02:26:03;92654.00;;;-1.66;81.21
39789;BME280;25478;42.626;23.320;2023-04-06T02:28:29;92659.75;;;-1.70;81.88
39789;BME280;25478;42.626;23.320;2023-04-06T02:30:55;92659.31;;;-1.63;81.47
39789;BME280;25478;42.626;23.320;2023-04-06T02:33:25;92653.81;;;-1.61;81.23
39789;BME280;25478;42.626;23.320;2023-04-06T02:35:51;92659.47;;;-1.59;81.19
39789;BME280;25478;42.626;23.320;2023-04-06T02:38:17;92657.91;;;-1.60;81.72
39789;BME280;25478;42.626;23.320;2023-04-06T02:40:43;92655.19;;;-1.64;80.76
39789;BME280;25478;42.626;23.320;2023-04-06T02:43:21;92659.91;;;-1.57;80.94
39789;BME280;25478;42.626;23.320;2023-04-06T02:45:52;92659.47;;;-1.59;80.88
39789;BME280;25478;42.626;23.320;2023-04-06T02:48:19;92645.78;;;-1.68;80.83
39789;BME280;25478;42.626;23.320;2023-04-06T02:50:45;92649.59;;;-1.66;81.30
39789;BME280;25478;42.626;23.320;2023-04-06T02:53:11;92647.31;;;-1.59;81.05
39789;BME280;25478;42.626;23.320;2023-04-06T02:55:38;92643.34;;;-1.56;81.14
39789;BME280;25478;42.626;23.320;2023-04-06T02:58:04;92650.16;;;-1.52;81.25
39789;BME280;25478;42.626;23.320;2023-04-06T03:00:39;92651.81;;;-1.47;80.94
39789;BME280;25478;42.626;23.320;2023-04-06T03:03:05;92648.91;;;-1.37;80.46
39789;BME280;25478;42.626;23.320;2023-04-06T03:05:30;92652.53;;;-1.38;80.91
39789;BME280;25478;42.626;23.320;2023-04-06T03:07:56;92639.63;;;-1.38;81.03
39789;BME280;25478;42.626;23.320;2023-04-06T03:10:32;92642.53;;;-1.39;80.27
39789;BME280;25478;42.626;23.320;2023-04-06T03:12:57;92637.34;;;-1.31;80.24
39789;BME280;25478;42.626;23.320;2023-04-06T03:15:41;92603.88;;;-1.57;79.54
39789;BME280;25478;42.626;23.320;2023-04-06T03:18:13;92641.16;;;-1.37;79.91
39789;BME280;25478;42.626;23.320;2023-04-06T03:20:44;92632.78;;;-1.34;79.78
39789;BME280;25478;42.626;23.320;2023-04-06T03:23:09;92649.22;;;-1.38;79.81
39789;BME280;25478;42.626;23.320;2023-04-06T03:25:39;92634.78;;;-1.39;79.67
39789;BME280;25478;42.626;23.320;2023-04-06T03:28:07;92647.69;;;-1.39;79.92
39789;BME280;25478;42.626;23.320;2023-04-06T03:30:39;92643.28;;;-1.39;80.44
39789;BME280;25478;42.626;23.320;2023-04-06T03:33:05;92618.88;;;-1.50;79.99
39789;BME280;25478;42.626;23.320;2023-04-06T03:35:35;92644.38;;;-1.49;80.27
39789;BME280;25478;42.626;23.320;2023-04-06T03:38:03;92632.69;;;-1.46;79.92
39789;BME280;25478;42.626;23.320;2023-04-06T03:40:29;92646.34;;;-1.46;79.86
39789;BME280;25478;42.626;23.320;2023-04-06T03:42:54;92633.75;;;-1.47;79.48
39789;BME280;25478;42.626;23.320;2023-04-06T03:45:21;92645.59;;;-1.46;79.69
39789;BME280;25478;42.626;23.320;2023-04-06T03:47:49;92645.16;;;-1.48;79.68
39789;BME280;25478;42.626;23.320;2023-04-06T03:50:15;92628.00;;;-1.61;79.95
39789;BME280;25478;42.626;23.320;2023-04-06T03:52:41;92649.09;;;-1.51;79.50
39789;BME280;25478;42.626;23.320;2023-04-06T03:55:07;92654.56;;;-1.52;80.10
39789;BME280;25478;42.626;23.320;2023-04-06T03:57:34;92638.03;;;-1.51;79.79
39789;BME280;25478;42.626;23.320;2023-04-06T04:00:01;92634.22;;;-1.54;79.53
39789;BME280;25478;42.626;23.320;2023-04-06T04:02:38;92633.00;;;-1.48;80.13
39789;BME280;25478;42.626;23.320;2023-04-06T04:05:03;92614.34;;;-1.62;79.49
39789;BME280;25478;42.626;23.320;2023-04-06T04:07:30;92645.75;;;-1.43;79.85
39789;BME280;25478;42.626;23.320;2023-04-06T04:09:56;92641.59;;;-1.35;79.59
39789;BME280;25478;42.626;23.320;2023-04-06T04:12:22;92636.41;;;-1.35;78.54
39789;BME280;25478;42.626;23.320;2023-04-06T04:14:47;92636.69;;;-1.28;78.77
39789;BME280;25478;42.626;23.320;2023-04-06T04:17:13;92616.88;;;-1.45;78.90
39789;BME280;25478;42.626;23.320;2023-04-06T04:19:38;92625.81;;;-1.33;78.80
39789;BME280;25478;42.626;23.320;2023-04-06T04:22:04;92629.91;;;-1.32;78.71
39789;BME280;25478;42.626;23.320;2023-04-06T04:24:33;92644.72;;;-1.21;77.96
39789;BME280;25478;42.626;23.320;2023-04-06T04:26:59;92636.50;;;-1.14;78.45
39789;BME280;25478;42.626;23.320;2023-04-06T04:29:27;92638.78;;;-1.13;77.81
39789;BME280;25478;42.626;23.320;2023-04-06T04:32:00;92638.56;;;-0.99;77.88
39789;BME280;25478;42.626;23.320;2023-04-06T04:34:26;92640.38;;;-0.70;77.73
39789;BME280;25478;42.626;23.320;2023-04-06T04:36:52;92645.31;;;-0.56;77.03
39789;BME280;25478;42.626;23.320;2023-04-06T04:39:26;92659.91;;;-0.60;76.38
39789;BME280;25478;42.626;23.320;2023-04-06T04:41:59;92651.56;;;-0.57;76.62
39789;BME280;25478;42.626;23.320;2023-04-06T04:44:26;92648.81;;;-0.61;76.76
39789;BME280;25478;42.626;23.320;2023-04-06T04:46:52;92661.56;;;-0.55;77.06
39789;BME280;25478;42.626;23.320;2023-04-06T04:49:22;92655.97;;;-0.58;76.60
39789;BME280;25478;42.626;23.320;2023-04-06T04:51:49;92651.34;;;-0.52;76.44
39789;BME280;25478;42.626;23.320;2023-04-06T04:54:41;92642.13;;;-0.62;75.71
39789;BME280;25478;42.626;23.320;2023-04-06T04:57:10;92649.56;;;-0.60;76.36
39789;BME280;25478;42.626;23.320;2023-04-06T04:59:39;92661.56;;;-0.55;75.08
39789;BME280;25478;42.626;23.320;2023-04-06T05:02:15;92659.75;;;-0.55;75.47
39789;BME280;25478;42.626;23.320;2023-04-06T05:04:58;92652.84;;;-0.51;75.44
39789;BME280;25478;42.626;23.320;2023-04-06T05:07:25;92659.63;;;-0.38;74.16
39789;BME280;25478;42.626;23.320;2023-04-06T05:09:53;92654.78;;;-0.39;75.03
39789;BME280;25478;42.626;23.320;2023-04-06T05:12:21;92667.50;;;-0.34;74.18
39789;BME280;25478;42.626;23.320;2023-04-06T05:14:59;92657.88;;;-0.25;74.03
39789;BME280;25478;42.626;23.320;2023-04-06T05:17:25;92665.25;;;-0.15;73.86
39789;BME280;25478;42.626;23.320;2023-04-06T05:19:52;92664.28;;;-0.10;74.25
39789;BME280;25478;42.626;23.320;2023-04-06T05:22:22;92670.28;;;0.03;73.18
39789;BME280;25478;42.626;23.320;2023-04-06T05:24:56;92676.72;;;0.17;71.70
39789;BME280;25478;42.626;23.320;2023-04-06T05:27:21;92653.78;;;0.07;72.01
39789;BME280;25478;42.626;23.320;2023-04-06T05:29:47;92678.38;;;0.34;72.31
39789;BME280;25478;42.626;23.320;2023-04-06T05:32:14;92686.19;;;0.46;71.70
39789;BME280;25478;42.626;23.320;2023-04-06T05:34:40;92680.06;;;0.63;71.97
39789;BME280;25478;42.626;23.320;2023-04-06T05:37:06;92680.88;;;0.88;70.85
39789;BME280;25478;42.626;23.320;2023-04-06T05:39:31;92671.25;;;1.25;70.12
39789;BME280;25478;42.626;23.320;2023-04-06T05:42:03;92670.50;;;1.61;68.84
39789;BME280;25478;42.626;23.320;2023-04-06T05:44:55;92672.84;;;2.07;67.22
39789;BME280;25478;42.626;23.320;2023-04-06T05:47:21;92667.84;;;2.42;65.87
39789;BME280;25478;42.626;23.320;2023-04-06T05:49:52;92674.38;;;2.79;65.48
39789;BME280;25478;42.626;23.320;2023-04-06T05:52:30;92668.50;;;3.14;63.14
39789;BME280;25478;42.626;23.320;2023-04-06T05:54:55;92657.66;;;3.28;63.12
39789;BME280;25478;42.626;23.320;2023-04-06T05:57:23;92660.41;;;3.35;61.32
39789;BME280;25478;42.626;23.320;2023-04-06T05:59:49;92656.72;;;3.36;61.23
39789;BME280;25478;42.626;23.320;2023-04-06T06:02:15;92642.63;;;3.37;60.91
39789;BME280;25478;42.626;23.320;2023-04-06T06:04:44;92649.50;;;3.45;59.92
39789;BME280;25478;42.626;23.320;2023-04-06T06:07:09;92649.59;;;3.33;60.42
39789;BME280;25478;42.626;23.320;2023-04-06T06:09:41;92648.34;;;3.27;60.61
39789;BME280;25478;42.626;23.320;2023-04-06T06:12:16;92662.69;;;3.36;60.52
39789;BME280;25478;42.626;23.320;2023-04-06T06:14:41;92658.72;;;3.43;60.63
39789;BME280;25478;42.626;23.320;2023-04-06T06:17:08;92657.91;;;3.23;60.47
39789;BME280;25478;42.626;23.320;2023-04-06T06:19:34;92661.78;;;3.13;60.45
39789;BME280;25478;42.626;23.320;2023-04-06T06:22:03;92660.00;;;3.17;60.90
39789;BME280;25478;42.626;23.320;2023-04-06T06:24:32;92660.34;;;3.31;60.83
39789;BME280;25478;42.626;23.320;2023-04-06T06:26:59;92660.97;;;3.60;60.22
39789;BME280;25478;42.626;23.320;2023-04-06T06:29:27;92659.97;;;3.84;59.32
39789;BME280;25478;42.626;23.320;2023-04-06T06:31:53;92638.38;;;4.03;59.12
39789;BME280;25478;42.626;23.320;2023-04-06T06:34:18;92655.88;;;4.41;58.01
39789;BME280;25478;42.626;23.320;2023-04-06T06:36:44;92647.66;;;4.62;56.09
39789;BME280;25478;42.626;23.320;2023-04-06T06:39:11;92641.25;;;4.56;55.78
39789;BME280;25478;42.626;23.320;2023-04-06T06:41:38;92655.81;;;4.79;55.47
39789;BME280;25478;42.626;23.320;2023-04-06T06:44:04;92643.06;;;4.74;54.42
39789;BME280;25478;42.626;23.320;2023-04-06T06:46:30;92641.69;;;4.80;53.98
39789;BME280;25478;42.626;23.320;2023-04-06T06:48:58;92655.50;;;4.85;53.81
39789;BME280;25478;42.626;23.320;2023-04-06T06:51:24;92659.34;;;4.91;54.68
39789;BME280;25478;42.626;23.320;2023-04-06T06:53:49;92662.28;;;5.12;53.03
39789;BME280;25478;42.626;23.320;2023-04-06T06:56:15;92642.00;;;4.79;53.77
39789;BME280;25478;42.626;23.320;2023-04-06T06:58:41;92664.34;;;4.99;53.22
39789;BME280;25478;42.626;23.320;2023-04-06T07:01:07;92647.41;;;4.90;53.54
39789;BME280;25478;42.626;23.320;2023-04-06T07:03:34;92652.28;;;4.91;53.85
39789;BME280;25478;42.626;23.320;2023-04-06T07:05:59;92649.19;;;4.86;53.63
39789;BME280;25478;42.626;23.320;2023-04-06T07:08:25;92635.75;;;4.61;54.10
39789;BME280;25478;42.626;23.320;2023-04-06T07:10:52;92649.47;;;4.58;54.61
39789;BME280;25478;42.626;23.320;2023-04-06T07:13:19;92639.84;;;4.39;55.11
39789;BME280;25478;42.626;23.320;2023-04-06T07:15:50;92624.34;;;4.07;55.20
39789;BME280;25478;42.626;23.320;2023-04-06T07:18:17;92647.31;;;4.02;56.19
39789;BME280;25478;42.626;23.320;2023-04-06T07:20:44;92639.69;;;3.93;55.61
39789;BME280;25478;42.626;23.320;2023-04-06T07:23:09;92651.81;;;3.85;56.53
39789;BME280;25478;42.626;23.320;2023-04-06T07:25:35;92648.81;;;3.83;56.48
39789;BME280;25478;42.626;23.320;2023-04-06T07:28:02;92645.50;;;3.86;57.08
39789;BME280;25478;42.626;23.320;2023-04-06T07:30:28;92657.31;;;4.00;56.83
39789;BME280;25478;42.626;23.320;2023-04-06T07:32:54;92652.19;;;4.22;56.25
39789;BME280;25478;42.626;23.320;2023-04-06T07:35:26;92653.22;;;4.37;55.72
39789;BME280;25478;42.626;23.320;2023-04-06T07:37:55;92653.19;;;4.57;54.38
39789;BME280;25478;42.626;23.320;2023-04-06T07:40:21;92643.06;;;4.32;54.98
39789;BME280;25478;42.626;23.320;2023-04-06T07:42:48;92639.75;;;4.35;54.65
39789;BME280;25478;42.626;23.320;2023-04-06T07:45:14;92632.97;;;4.31;55.13
39789;BME280;25478;42.626;23.320;2023-04-06T07:47:42;92637.69;;;4.44;55.42
39789;BME280;25478;42.626;23.320;2023-04-06T07:50:08;92639.00;;;4.54;55.21
39789;BME280;25478;42.626;23.320;2023-04-06T07:52:34;92635.06;;;4.64;55.11
39789;BME280;25478;42.626;23.320;2023-04-06T07:55:00;92636.78;;;4.79;53.96
39789;BME280;25478;42.626;23.320;2023-04-06T07:57:25;92646.94;;;5.07;53.68
39789;BME280;25478;42.626;23.320;2023-04-06T07:59:51;92638.53;;;5.17;52.55
39789;BME280;25478;42.626;23.320;2023-04-06T08:02:18;92634.78;;;4.92;52.43
39789;BME280;25478;42.626;23.320;2023-04-06T08:04:44;92646.22;;;4.87;52.98
39789;BME280;25478;42.626;23.320;2023-04-06T08:07:09;92645.00;;;5.04;53.84
39789;BME280;25478;42.626;23.320;2023-04-06T08:09:35;92633.72;;;5.46;52.58
39789;BME280;25478;42.626;23.320;2023-04-06T08:12:00;92626.59;;;5.43;51.82
39789;BME280;25478;42.626;23.320;2023-04-06T08:14:26;92633.47;;;5.54;51.86
39789;BME280;25478;42.626;23.320;2023-04-06T08:16:51;92636.75;;;5.78;51.16
39789;BME280;25478;42.626;23.320;2023-04-06T08:19:17;92650.22;;;6.06;51.12
39789;BME280;25478;42.626;23.320;2023-04-06T08:21:44;92648.56;;;6.25;49.68
39789;BME280;25478;42.626;23.320;2023-04-06T08:24:11;92637.38;;;6.24;49.91
39789;BME280;25478;42.626;23.320;2023-04-06T08:26:37;92645.00;;;6.06;50.26
39789;BME280;25478;42.626;23.320;2023-04-06T08:29:03;92643.44;;;6.02;50.15
39789;BME280;25478;42.626;23.320;2023-04-06T08:31:30;92646.72;;;5.95;50.28
39789;BME280;25478;42.626;23.320;2023-04-06T08:33:56;92648.22;;;5.96;50.04
39789;BME280;25478;42.626;23.320;2023-04-06T08:36:21;92638.50;;;5.97;51.22
39789;BME280;25478;42.626;23.320;2023-04-06T08:38:49;92643.47;;;6.05;50.55
39789;BME280;25478;42.626;23.320;2023-04-06T08:41:15;92623.81;;;5.88;49.79
39789;BME280;25478;42.626;23.320;2023-04-06T08:43:47;92643.34;;;5.68;50.39
39789;BME280;25478;42.626;23.320;2023-04-06T08:46:14;92650.63;;;5.29;51.27
39789;BME280;25478;42.626;23.320;2023-04-06T08:48:41;92654.03;;;5.06;51.99
39789;BME280;25478;42.626;23.320;2023-04-06T08:51:09;92645.84;;;5.08;51.95
39789;BME280;25478;42.626;23.320;2023-04-06T08:53:35;92629.91;;;4.67;52.36
39789;BME280;25478;42.626;23.320;2023-04-06T08:56:01;92617.53;;;4.41;53.22
39789;BME280;25478;42.626;23.320;2023-04-06T08:58:29;92649.66;;;4.68;53.49
39789;BME280;25478;42.626;23.320;2023-04-06T09:00:55;92621.13;;;4.79;52.68
39789;BME280;25478;42.626;23.320;2023-04-06T09:03:22;92639.50;;;4.86;53.74
39789;BME280;25478;42.626;23.320;2023-04-06T09:05:49;92649.16;;;5.05;53.34
39789;BME280;25478;42.626;23.320;2023-04-06T09:08:15;92651.97;;;5.19;52.64
39789;BME280;25478;42.626;23.320;2023-04-06T09:10:41;92654.66;;;5.23;51.58
39789;BME280;25478;42.626;23.320;2023-04-06T09:13:08;92650.81;;;5.17;51.95
39789;BME280;25478;42.626;23.320;2023-04-06T09:15:34;92653.53;;;5.24;52.46
39789;BME280;25478;42.626;23.320;2023-04-06T09:18:00;92640.13;;;5.25;52.13
39789;BME280;25478;42.626;23.320;2023-04-06T09:20:26;92656.13;;;5.47;52.68
39789;BME280;25478;42.626;23.320;2023-04-06T09:22:54;92654.16;;;5.67;51.63
39789;BME280;25478;42.626;23.320;2023-04-06T09:25:21;92650.72;;;5.62;51.22
39789;BME280;25478;42.626;23.320;2023-04-06T09:27:57;92649.84;;;5.51;50.56
39789;BME280;25478;42.626;23.320;2023-04-06T09:30:23;92654.91;;;5.41;51.36
39789;BME280;25478;42.626;23.320;2023-04-06T09:32:51;92650.56;;;5.48;51.55
39789;BME280;25478;42.626;23.320;2023-04-06T09:35:18;92653.59;;;5.54;52.63
39789;BME280;25478;42.626;23.320;2023-04-06T09:37:46;92645.34;;;5.78;51.68
39789;BME280;25478;42.626;23.320;2023-04-06T09:40:13;92648.69;;;6.05;50.46
39789;BME280;25478;42.626;23.320;2023-04-06T09:42:45;92645.41;;;6.12;51.16
39789;BME280;25478;42.626;23.320;2023-04-06T09:45:12;92642.94;;;6.23;50.33
39789;BME280;25478;42.626;23.320;2023-04-06T09:47:40;92643.56;;;6.12;49.32
39789;BME280;25478;42.626;23.320;2023-04-06T09:50:09;92648.13;;;5.89;50.46
39789;BME280;25478;42.626;23.320;2023-04-06T09:52:46;92639.09;;;5.86;50.99
39789;BME280;25478;42.626;23.320;2023-04-06T09:55:20;92650.22;;;5.80;50.06
39789;BME280;25478;42.626;23.320;2023-04-06T09:57:55;92648.53;;;5.64;50.89
39789;BME280;25478;42.626;23.320;2023-04-06T10:00:25;92646.38;;;5.44;50.39
39789;BME280;25478;42.626;23.320;2023-04-06T10:05:35;92642.25;;;5.43;51.30
39789;BME280;25478;42.626;23.320;2023-04-06T10:08:07;92643.84;;;5.24;50.62
39789;BME280;25478;42.626;23.320;2023-04-06T10:10:35;92651.81;;;5.08;51.76
39789;BME280;25478;42.626;23.320;2023-04-06T10:13:01;92650.31;;;5.07;52.01
39789;BME280;25478;42.626;23.320;2023-04-06T10:15:30;92633.69;;;5.19;51.55
39789;BME280;25478;42.626;23.320;2023-04-06T10:17:59;92632.97;;;5.45;50.95
39789;BME280;25478;42.626;23.320;2023-04-06T10:20:39;92652.22;;;5.37;50.23
39789;BME280;25478;42.626;23.320;2023-04-06T10:23:15;92631.41;;;5.41;49.96
39789;BME280;25478;42.626;23.320;2023-04-06T10:25:58;92641.00;;;5.59;50.99
39789;BME280;25478;42.626;23.320;2023-04-06T10:28:25;92632.78;;;5.87;51.38
39789;BME280;25478;42.626;23.320;2023-04-06T10:30:58;92638.25;;;6.05;49.68
39789;BME280;25478;42.626;23.320;2023-04-06T10:33:25;92630.47;;;6.09;49.97
39789;BME280;25478;42.626;23.320;2023-04-06T10:35:51;92626.44;;;6.15;49.43
39789;BME280;25478;42.626;23.320;2023-04-06T10:38:17;92602.19;;;5.88;50.03
39789;BME280;25478;42.626;23.320;2023-04-06T10:40:47;92636.75;;;5.78;49.23
39789;BME280;25478;42.626;23.320;2023-04-06T10:43:21;92635.47;;;5.64;50.44
39789;BME280;25478;42.626;23.320;2023-04-06T10:45:59;92625.63;;;5.54;50.15
39789;BME280;25478;42.626;23.320;2023-04-06T10:48:25;92609.63;;;5.29;50.82
39789;BME280;25478;42.626;23.320;2023-04-06T10:51:01;92632.84;;;5.38;50.41
39789;BME280;25478;42.626;23.320;2023-04-06T10:53:27;92628.44;;;5.16;50.63
39789;BME280;25478;42.626;23.320;2023-04-06T10:55:55;92637.13;;;5.23;51.06
39789;BME280;25478;42.626;23.320;2023-04-06T10:58:26;92638.28;;;5.26;51.46
39789;BME280;25478;42.626;23.320;2023-04-06T11:00:52;92634.91;;;5.25;51.48
39789;BME280;25478;42.626;23.320;2023-04-06T11:03:18;92627.69;;;5.15;51.81
39789;BME280;25478;42.626;23.320;2023-04-06T11:05:47;92629.31;;;5.00;52.28
39789;BME280;25478;42.626;23.320;2023-04-06T11:08:43;92630.06;;;5.01;52.58
39789;BME280;25478;42.626;23.320;2023-04-06T11:11:13;92623.13;;;4.86;52.43
39789;BME280;25478;42.626;23.320;2023-04-06T11:13:59;92614.38;;;4.74;52.89
39789;BME280;25478;42.626;23.320;2023-04-06T11:19:02;92610.31;;;4.54;52.78
39789;BME280;25478;42.626;23.320;2023-04-06T11:21:45;92623.00;;;4.56;53.21
39789;BME280;25478;42.626;23.320;2023-04-06T11:24:23;92615.47;;;4.50;53.08
39789;BME280;25478;42.626;23.320;2023-04-06T11:26:54;92614.47;;;4.59;53.13
39789;BME280;25478;42.626;23.320;2023-04-06T11:29:22;92606.44;;;4.67;53.60
39789;BME280;25478;42.626;23.320;2023-04-06T11:32:02;92612.63;;;4.82;52.07
39789;BME280;25478;42.626;23.320;2023-04-06T11:34:30;92615.88;;;4.75;53.08
39789;BME280;25478;42.626;23.320;2023-04-06T11:37:04;92611.06;;;4.77;52.55
39789;BME280;25478;42.626;23.320;2023-04-06T11:39:39;92603.81;;;4.90;52.58
39789;BME280;25478;42.626;23.320;2023-04-06T11:42:06;92603.13;;;4.93;52.89
39789;BME280;25478;42.626;23.320;2023-04-06T11:44:43;92605.38;;;4.95;52.65
39789;BME280;25478;42.626;23.320;2023-04-06T11:47:12;92614.03;;;4.76;52.69
39789;BME280;25478;42.626;23.320;2023-04-06T11:49:39;92599.25;;;4.61;52.97
39789;BME280;25478;42.626;23.320;2023-04-06T11:52:15;92600.66;;;4.55;53.36
39789;BME280;25478;42.626;23.320;2023-04-06T11:54:42;92599.94;;;4.58;53.36
39789;BME280;25478;42.626;23.320;2023-04-06T11:57:08;92591.38;;;4.57;52.85
39789;BME280;25478;42.626;23.320;2023-04-06T11:59:34;92597.09;;;4.66;53.57
39789;BME280;25478;42.626;23.320;2023-04-06T12:02:03;92595.84;;;4.79;53.10
39789;BME280;25478;42.626;23.320;2023-04-06T12:04:29;92596.00;;;4.90;52.19
39789;BME280;25478;42.626;23.320;2023-04-06T12:06:55;92598.88;;;4.85;52.63
39789;BME280;25478;42.626;23.320;2023-04-06T12:09:21;92603.44;;;4.88;52.35
39789;BME280;25478;42.626;23.320;2023-04-06T12:11:47;92596.16;;;4.78;52.80
39789;BME280;25478;42.626;23.320;2023-04-06T12:14:13;92593.78;;;4.69;52.25
39789;BME280;25478;42.626;23.320;2023-04-06T12:16:39;92606.63;;;4.55;53.45
39789;BME280;25478;42.626;23.320;2023-04-06T12:19:04;92601.16;;;4.41;53.20
39789;BME280;25478;42.626;23.320;2023-04-06T12:21:30;92586.97;;;4.38;53.84
39789;BME280;25478;42.626;23.320;2023-04-06T12:24:00;92594.34;;;4.36;53.62
39789;BME280;25478;42.626;23.320;2023-04-06T12:26:26;92592.44;;;4.33;53.81
39789;BME280;25478;42.626;23.320;2023-04-06T12:28:52;92570.94;;;4.17;53.77
39789;BME280;25478;42.626;23.320;2023-04-06T12:31:20;92589.13;;;4.36;54.18
39789;BME280;25478;42.626;23.320;2023-04-06T12:33:48;92598.81;;;4.36;54.39
39789;BME280;25478;42.626;23.320;2023-04-06T12:36:16;92600.31;;;4.37;53.92
39789;BME280;25478;42.626;23.320;2023-04-06T12:38:44;92588.56;;;4.23;54.03
39789;BME280;25478;42.626;23.320;2023-04-06T12:41:11;92590.97;;;4.13;54.78
39789;BME280;25478;42.626;23.320;2023-04-06T12:43:38;92592.25;;;4.03;54.93
39789;BME280;25478;42.626;23.320;2023-04-06T12:46:04;92579.44;;;3.94;55.21
39789;BME280;25478;42.626;23.320;2023-04-06T12:48:29;92583.78;;;4.06;55.03
39789;BME280;25478;42.626;23.320;2023-04-06T12:50:59;92588.25;;;4.06;53.98
39789;BME280;25478;42.626;23.320;2023-04-06T12:53:26;92583.66;;;3.99;53.70
39789;BME280;25478;42.626;23.320;2023-04-06T12:55:54;92579.06;;;3.92;53.95
39789;BME280;25478;42.626;23.320;2023-04-06T12:58:21;92582.97;;;3.83;54.13
39789;BME280;25478;42.626;23.320;2023-04-06T13:00:48;92583.38;;;3.85;53.62
39789;BME280;25478;42.626;23.320;2023-04-06T13:03:13;92585.91;;;3.81;53.38
39789;BME280;25478;42.626;23.320;2023-04-06T13:05:46;92578.09;;;3.81;54.23
39789;BME280;25478;42.626;23.320;2023-04-06T13:08:14;92571.38;;;3.80;54.18